sensor_id;sensor_type;location;lat;lon;timestamp;P1;durP1;ratioP1;P2;durP2;ratioP2
39524;SDS011;25203;50.754;6.978;2023-03-21T00:01:25;10.35;;;4.57;;
39524;SDS011;25203;50.754;6.978;2023-03-21T00:03:26;13.15;;;5.35;;
39524;SDS011;25203;50.754;6.978;2023-03-21T00:05:27;11.50;;;4.88;;
39524;SDS011;25203;50.754;6.978;2023-03-21T00:07:28;8.90;;;4.32;;
39524;SDS011;25203;50.754;6.978;2023-03-21T00:09:28;9.73;;;4.78;;
39524;SDS011;25203;50.754;6.978;2023-03-21T00:11:29;8.80;;;4.75;;
39524;SDS011;25203;50.754;6.978;2023-03-21T00:13:30;13.43;;;4.78;;
39524;SDS011;25203;50.754;6.978;2023-03-21T00:15:37;10.65;;;5.35;;
39524;SDS011;25203;50.754;6.978;2023-03-21T00:17:49;14.38;;;5.05;;
39524;SDS011;25203;50.754;6.978;2023-03-21T00:19:52;10.90;;;5.25;;
39524;SDS011;25203;50.754;6.978;2023-03-21T00:21:53;14.20;;;5.00;;
39524;SDS011;25203;50.754;6.978;2023-03-21T00:23:54;15.68;;;4.95;;
39524;SDS011;25203;50.754;6.978;2023-03-21T00:25:55;11.82;;;4.68;;
39524;SDS011;25203;50.754;6.978;2023-03-21T00:27:56;12.13;;;4.90;;
39524;SDS011;25203;50.754;6.978;2023-03-21T00:29:56;14.80;;;4.93;;
39524;SDS011;25203;50.754;6.978;2023-03-21T00:31:57;10.15;;;4.88;;
39524;SDS011;25203;50.754;6.978;2023-03-21T00:33:58;12.55;;;5.00;;
39524;SDS011;25203;50.754;6.978;2023-03-21T00:35:59;16.10;;;5.88;;
39524;SDS011;25203;50.754;6.978;2023-03-21T00:38:01;11.85;;;5.00;;
39524;SDS011;25203;50.754;6.978;2023-03-21T00:40:02;7.97;;;4.65;;
39524;SDS011;25203;50.754;6.978;2023-03-21T00:42:09;11.43;;;5.45;;
39524;SDS011;25203;50.754;6.978;2023-03-21T00:44:10;11.05;;;4.90;;
39524;SDS011;25203;50.754;6.978;2023-03-21T00:46:14;16.60;;;5.20;;
39524;SDS011;25203;50.754;6.978;2023-03-21T00:48:15;11.88;;;4.97;;
39524;SDS011;25203;50.754;6.978;2023-03-21T00:50:16;14.35;;;5.43;;
39524;SDS011;25203;50.754;6.978;2023-03-21T00:52:17;15.07;;;4.97;;
39524;SDS011;25203;50.754;6.978;2023-03-21T00:54:17;11.80;;;5.00;;
39524;SDS011;25203;50.754;6.978;2023-03-21T00:56:18;15.45;;;5.60;;
39524;SDS011;25203;50.754;6.978;2023-03-21T00:58:19;10.68;;;4.78;;
39524;SDS011;25203;50.754;6.978;2023-03-21T01:00:20;9.27;;;4.65;;
39524;SDS011;25203;50.754;6.978;2023-03-21T01:02:21;14.38;;;5.03;;
39524;SDS011;25203;50.754;6.978;2023-03-21T01:04:26;12.77;;;4.60;;
39524;SDS011;25203;50.754;6.978;2023-03-21T01:06:27;11.23;;;4.60;;
39524;SDS011;25203;50.754;6.978;2023-03-21T01:08:28;12.75;;;5.05;;
39524;SDS011;25203;50.754;6.978;2023-03-21T01:10:30;11.10;;;4.57;;
39524;SDS011;25203;50.754;6.978;2023-03-21T01:12:30;10.27;;;4.47;;
39524;SDS011;25203;50.754;6.978;2023-03-21T01:14:31;11.43;;;4.72;;
39524;SDS011;25203;50.754;6.978;2023-03-21T01:16:31;14.07;;;4.85;;
39524;SDS011;25203;50.754;6.978;2023-03-21T01:18:32;14.32;;;4.88;;
39524;SDS011;25203;50.754;6.978;2023-03-21T01:20:34;16.58;;;5.00;;
39524;SDS011;25203;50.754;6.978;2023-03-21T01:22:35;13.07;;;5.13;;
39524;SDS011;25203;50.754;6.978;2023-03-21T01:24:35;11.65;;;4.28;;
39524;SDS011;25203;50.754;6.978;2023-03-21T01:26:36;11.00;;;4.72;;
39524;SDS011;25203;50.754;6.978;2023-03-21T01:28:37;11.50;;;4.63;;
39524;SDS011;25203;50.754;6.978;2023-03-21T01:30:43;11.55;;;5.13;;
39524;SDS011;25203;50.754;6.978;2023-03-21T01:32:48;15.20;;;5.25;;
39524;SDS011;25203;50.754;6.978;2023-03-21T01:34:49;14.98;;;4.78;;
39524;SDS011;25203;50.754;6.978;2023-03-21T01:36:49;15.18;;;5.13;;
39524;SDS011;25203;50.754;6.978;2023-03-21T01:38:51;14.02;;;5.18;;
39524;SDS011;25203;50.754;6.978;2023-03-21T01:40:52;12.05;;;4.78;;
39524;SDS011;25203;50.754;6.978;2023-03-21T01:42:53;11.43;;;4.90;;
39524;SDS011;25203;50.754;6.978;2023-03-21T01:46:56;14.55;;;5.40;;
39524;SDS011;25203;50.754;6.978;2023-03-21T01:51:10;13.15;;;5.00;;
39524;SDS011;25203;50.754;6.978;2023-03-21T01:53:12;15.07;;;4.85;;
39524;SDS011;25203;50.754;6.978;2023-03-21T01:55:14;13.65;;;4.85;;
39524;SDS011;25203;50.754;6.978;2023-03-21T01:57:28;14.40;;;5.05;;
39524;SDS011;25203;50.754;6.978;2023-03-21T01:59:36;9.77;;;5.13;;
39524;SDS011;25203;50.754;6.978;2023-03-21T02:01:45;15.75;;;5.40;;
39524;SDS011;25203;50.754;6.978;2023-03-21T02:03:46;12.52;;;4.55;;
39524;SDS011;25203;50.754;6.978;2023-03-21T02:06:00;15.90;;;4.78;;
39524;SDS011;25203;50.754;6.978;2023-03-21T02:08:06;11.68;;;5.30;;
39524;SDS011;25203;50.754;6.978;2023-03-21T02:10:07;12.23;;;5.72;;
39524;SDS011;25203;50.754;6.978;2023-03-21T02:12:11;11.07;;;4.97;;
39524;SDS011;25203;50.754;6.978;2023-03-21T02:14:15;9.63;;;4.63;;
39524;SDS011;25203;50.754;6.978;2023-03-21T02:16:28;15.13;;;4.68;;
39524;SDS011;25203;50.754;6.978;2023-03-21T02:28:39;12.18;;;4.72;;
39524;SDS011;25203;50.754;6.978;2023-03-21T02:31:04;14.38;;;5.07;;
39524;SDS011;25203;50.754;6.978;2023-03-21T02:33:18;9.55;;;4.13;;
39524;SDS011;25203;50.754;6.978;2023-03-21T02:37:53;14.57;;;5.32;;
39524;SDS011;25203;50.754;6.978;2023-03-21T02:40:43;13.57;;;4.65;;
39524;SDS011;25203;50.754;6.978;2023-03-21T02:45:04;10.40;;;5.13;;
39524;SDS011;25203;50.754;6.978;2023-03-21T02:47:13;13.48;;;4.65;;
39524;SDS011;25203;50.754;6.978;2023-03-21T02:49:23;15.63;;;4.57;;
39524;SDS011;25203;50.754;6.978;2023-03-21T02:51:26;10.80;;;4.95;;
39524;SDS011;25203;50.754;6.978;2023-03-21T02:53:33;8.27;;;4.40;;
39524;SDS011;25203;50.754;6.978;2023-03-21T02:55:37;10.35;;;4.60;;
39524;SDS011;25203;50.754;6.978;2023-03-21T02:57:42;12.57;;;4.78;;
39524;SDS011;25203;50.754;6.978;2023-03-21T02:59:44;14.82;;;5.47;;
39524;SDS011;25203;50.754;6.978;2023-03-21T03:01:53;18.35;;;5.80;;
39524;SDS011;25203;50.754;6.978;2023-03-21T03:03:55;12.93;;;5.50;;
39524;SDS011;25203;50.754;6.978;2023-03-21T03:05:56;14.52;;;5.07;;
39524;SDS011;25203;50.754;6.978;2023-03-21T03:08:11;13.00;;;5.22;;
39524;SDS011;25203;50.754;6.978;2023-03-21T03:22:32;12.82;;;5.03;;
39524;SDS011;25203;50.754;6.978;2023-03-21T03:24:48;12.48;;;5.13;;
39524;SDS011;25203;50.754;6.978;2023-03-21T03:27:14;14.57;;;4.80;;
39524;SDS011;25203;50.754;6.978;2023-03-21T03:29:19;11.95;;;5.70;;
39524;SDS011;25203;50.754;6.978;2023-03-21T03:31:26;13.18;;;4.45;;
39524;SDS011;25203;50.754;6.978;2023-03-21T03:33:33;13.57;;;5.25;;
39524;SDS011;25203;50.754;6.978;2023-03-21T03:35:40;9.48;;;4.68;;
39524;SDS011;25203;50.754;6.978;2023-03-21T03:37:41;9.75;;;5.03;;
39524;SDS011;25203;50.754;6.978;2023-03-21T03:39:50;12.90;;;5.60;;
39524;SDS011;25203;50.754;6.978;2023-03-21T03:42:04;16.15;;;5.20;;
39524;SDS011;25203;50.754;6.978;2023-03-21T03:44:12;16.27;;;5.68;;
39524;SDS011;25203;50.754;6.978;2023-03-21T03:46:16;17.05;;;5.93;;
39524;SDS011;25203;50.754;6.978;2023-03-21T03:48:23;12.05;;;4.75;;
39524;SDS011;25203;50.754;6.978;2023-03-21T03:50:38;15.73;;;5.57;;
39524;SDS011;25203;50.754;6.978;2023-03-21T03:52:46;11.85;;;4.57;;
39524;SDS011;25203;50.754;6.978;2023-03-21T03:54:49;10.05;;;4.70;;
39524;SDS011;25203;50.754;6.978;2023-03-21T03:56:51;12.50;;;5.60;;
39524;SDS011;25203;50.754;6.978;2023-03-21T03:58:52;16.52;;;5.28;;
39524;SDS011;25203;50.754;6.978;2023-03-21T04:00:53;13.68;;;5.00;;
39524;SDS011;25203;50.754;6.978;2023-03-21T04:02:55;12.50;;;5.10;;
39524;SDS011;25203;50.754;6.978;2023-03-21T04:04:58;14.50;;;5.90;;
39524;SDS011;25203;50.754;6.978;2023-03-21T04:06:58;16.27;;;5.22;;
39524;SDS011;25203;50.754;6.978;2023-03-21T04:08:59;13.57;;;4.55;;
39524;SDS011;25203;50.754;6.978;2023-03-21T04:11:00;13.55;;;5.53;;
39524;SDS011;25203;50.754;6.978;2023-03-21T04:13:01;14.75;;;5.85;;
39524;SDS011;25203;50.754;6.978;2023-03-21T04:15:02;15.35;;;5.97;;
39524;SDS011;25203;50.754;6.978;2023-03-21T04:17:03;12.25;;;4.95;;
39524;SDS011;25203;50.754;6.978;2023-03-21T04:19:03;15.13;;;5.85;;
39524;SDS011;25203;50.754;6.978;2023-03-21T04:21:10;12.00;;;5.75;;
39524;SDS011;25203;50.754;6.978;2023-03-21T04:23:12;11.40;;;5.00;;
39524;SDS011;25203;50.754;6.978;2023-03-21T04:25:12;14.20;;;4.90;;
39524;SDS011;25203;50.754;6.978;2023-03-21T04:27:13;14.02;;;5.20;;
39524;SDS011;25203;50.754;6.978;2023-03-21T04:29:14;19.85;;;5.72;;
39524;SDS011;25203;50.754;6.978;2023-03-21T04:31:15;10.13;;;5.28;;
39524;SDS011;25203;50.754;6.978;2023-03-21T04:33:16;18.63;;;5.72;;
39524;SDS011;25203;50.754;6.978;2023-03-21T04:35:17;12.88;;;5.55;;
39524;SDS011;25203;50.754;6.978;2023-03-21T04:37:18;12.90;;;5.50;;
39524;SDS011;25203;50.754;6.978;2023-03-21T04:39:19;12.77;;;5.32;;
39524;SDS011;25203;50.754;6.978;2023-03-21T04:41:20;16.80;;;4.97;;
39524;SDS011;25203;50.754;6.978;2023-03-21T04:43:21;12.88;;;5.75;;
39524;SDS011;25203;50.754;6.978;2023-03-21T04:45:22;16.02;;;5.65;;
39524;SDS011;25203;50.754;6.978;2023-03-21T04:47:23;14.88;;;6.20;;
39524;SDS011;25203;50.754;6.978;2023-03-21T04:49:24;10.52;;;5.55;;
39524;SDS011;25203;50.754;6.978;2023-03-21T04:51:25;20.65;;;6.53;;
39524;SDS011;25203;50.754;6.978;2023-03-21T04:53:26;16.13;;;5.60;;
39524;SDS011;25203;50.754;6.978;2023-03-21T04:55:26;16.23;;;5.88;;
39524;SDS011;25203;50.754;6.978;2023-03-21T04:57:28;13.10;;;5.38;;
39524;SDS011;25203;50.754;6.978;2023-03-21T04:59:29;19.65;;;6.75;;
39524;SDS011;25203;50.754;6.978;2023-03-21T05:01:30;15.95;;;5.53;;
39524;SDS011;25203;50.754;6.978;2023-03-21T05:03:31;13.35;;;5.15;;
39524;SDS011;25203;50.754;6.978;2023-03-21T05:05:36;13.43;;;5.55;;
39524;SDS011;25203;50.754;6.978;2023-03-21T05:07:38;25.33;;;6.30;;
39524;SDS011;25203;50.754;6.978;2023-03-21T05:09:39;11.60;;;5.60;;
39524;SDS011;25203;50.754;6.978;2023-03-21T05:11:40;17.20;;;5.43;;
39524;SDS011;25203;50.754;6.978;2023-03-21T05:13:41;11.00;;;5.95;;
39524;SDS011;25203;50.754;6.978;2023-03-21T05:15:42;19.75;;;5.70;;
39524;SDS011;25203;50.754;6.978;2023-03-21T05:17:42;14.20;;;5.43;;
39524;SDS011;25203;50.754;6.978;2023-03-21T05:19:43;15.73;;;5.90;;
39524;SDS011;25203;50.754;6.978;2023-03-21T05:21:43;15.35;;;5.43;;
39524;SDS011;25203;50.754;6.978;2023-03-21T05:23:44;11.50;;;5.60;;
39524;SDS011;25203;50.754;6.978;2023-03-21T05:25:45;16.10;;;5.53;;
39524;SDS011;25203;50.754;6.978;2023-03-21T05:27:45;11.60;;;6.40;;
39524;SDS011;25203;50.754;6.978;2023-03-21T05:29:53;12.30;;;6.03;;
39524;SDS011;25203;50.754;6.978;2023-03-21T05:31:53;15.73;;;5.55;;
39524;SDS011;25203;50.754;6.978;2023-03-21T05:33:54;17.52;;;5.80;;
39524;SDS011;25203;50.754;6.978;2023-03-21T05:35:54;14.35;;;5.88;;
39524;SDS011;25203;50.754;6.978;2023-03-21T05:37:55;12.68;;;6.07;;
39524;SDS011;25203;50.754;6.978;2023-03-21T05:39:56;14.90;;;5.57;;
39524;SDS011;25203;50.754;6.978;2023-03-21T05:41:56;20.15;;;6.25;;
39524;SDS011;25203;50.754;6.978;2023-03-21T05:43:57;14.82;;;6.75;;
39524;SDS011;25203;50.754;6.978;2023-03-21T05:45:57;18.17;;;6.38;;
39524;SDS011;25203;50.754;6.978;2023-03-21T05:47:58;13.85;;;6.15;;
39524;SDS011;25203;50.754;6.978;2023-03-21T05:49:59;16.75;;;6.03;;
39524;SDS011;25203;50.754;6.978;2023-03-21T05:51:59;14.38;;;6.32;;
39524;SDS011;25203;50.754;6.978;2023-03-21T05:54:00;11.82;;;6.35;;
39524;SDS011;25203;50.754;6.978;2023-03-21T05:56:00;13.82;;;6.03;;
39524;SDS011;25203;50.754;6.978;2023-03-21T05:58:02;14.63;;;5.43;;
39524;SDS011;25203;50.754;6.978;2023-03-21T06:00:03;17.17;;;6.40;;
39524;SDS011;25203;50.754;6.978;2023-03-21T06:02:04;15.98;;;5.78;;
39524;SDS011;25203;50.754;6.978;2023-03-21T06:04:05;14.27;;;5.97;;
39524;SDS011;25203;50.754;6.978;2023-03-21T06:06:06;14.52;;;6.10;;
39524;SDS011;25203;50.754;6.978;2023-03-21T06:08:07;14.00;;;5.78;;
39524;SDS011;25203;50.754;6.978;2023-03-21T06:10:08;15.02;;;6.43;;
39524;SDS011;25203;50.754;6.978;2023-03-21T06:12:09;21.27;;;6.65;;
39524;SDS011;25203;50.754;6.978;2023-03-21T06:14:11;10.95;;;5.65;;
39524;SDS011;25203;50.754;6.978;2023-03-21T06:16:12;17.02;;;5.97;;
39524;SDS011;25203;50.754;6.978;2023-03-21T06:18:13;18.38;;;6.00;;
39524;SDS011;25203;50.754;6.978;2023-03-21T06:20:13;11.60;;;5.20;;
39524;SDS011;25203;50.754;6.978;2023-03-21T06:22:14;16.05;;;6.43;;
39524;SDS011;25203;50.754;6.978;2023-03-21T06:24:15;12.27;;;6.20;;
39524;SDS011;25203;50.754;6.978;2023-03-21T06:26:16;13.73;;;5.55;;
39524;SDS011;25203;50.754;6.978;2023-03-21T06:28:21;10.93;;;6.25;;
39524;SDS011;25203;50.754;6.978;2023-03-21T06:30:22;12.50;;;5.63;;
39524;SDS011;25203;50.754;6.978;2023-03-21T06:32:23;17.33;;;6.50;;
39524;SDS011;25203;50.754;6.978;2023-03-21T06:34:24;14.85;;;7.45;;
39524;SDS011;25203;50.754;6.978;2023-03-21T06:36:25;16.10;;;6.13;;
39524;SDS011;25203;50.754;6.978;2023-03-21T06:38:26;13.80;;;5.53;;
39524;SDS011;25203;50.754;6.978;2023-03-21T06:40:27;14.50;;;5.80;;
39524;SDS011;25203;50.754;6.978;2023-03-21T06:42:27;13.43;;;5.88;;
39524;SDS011;25203;50.754;6.978;2023-03-21T06:44:29;9.25;;;5.57;;
39524;SDS011;25203;50.754;6.978;2023-03-21T06:46:29;13.02;;;6.28;;
39524;SDS011;25203;50.754;6.978;2023-03-21T06:48:30;15.20;;;5.75;;
39524;SDS011;25203;50.754;6.978;2023-03-21T06:50:31;13.25;;;5.68;;
39524;SDS011;25203;50.754;6.978;2023-03-21T06:52:32;18.77;;;5.97;;
39524;SDS011;25203;50.754;6.978;2023-03-21T06:54:32;15.68;;;6.22;;
39524;SDS011;25203;50.754;6.978;2023-03-21T06:56:34;14.30;;;6.28;;
39524;SDS011;25203;50.754;6.978;2023-03-21T06:58:35;14.43;;;6.55;;
39524;SDS011;25203;50.754;6.978;2023-03-21T07:00:35;12.43;;;5.97;;
39524;SDS011;25203;50.754;6.978;2023-03-21T07:02:36;13.95;;;6.28;;
39524;SDS011;25203;50.754;6.978;2023-03-21T07:04:36;15.18;;;6.50;;
39524;SDS011;25203;50.754;6.978;2023-03-21T07:06:37;16.30;;;7.15;;
39524;SDS011;25203;50.754;6.978;2023-03-21T07:08:38;19.25;;;6.60;;
39524;SDS011;25203;50.754;6.978;2023-03-21T07:10:40;19.48;;;7.13;;
39524;SDS011;25203;50.754;6.978;2023-03-21T07:12:42;14.63;;;6.45;;
39524;SDS011;25203;50.754;6.978;2023-03-21T07:14:42;16.67;;;6.88;;
39524;SDS011;25203;50.754;6.978;2023-03-21T07:16:43;14.85;;;6.95;;
39524;SDS011;25203;50.754;6.978;2023-03-21T07:18:43;17.70;;;7.75;;
39524;SDS011;25203;50.754;6.978;2023-03-21T07:20:47;16.27;;;6.97;;
39524;SDS011;25203;50.754;6.978;2023-03-21T07:22:49;18.33;;;8.00;;
39524;SDS011;25203;50.754;6.978;2023-03-21T07:24:50;16.35;;;8.10;;
39524;SDS011;25203;50.754;6.978;2023-03-21T07:26:51;19.23;;;7.60;;
39524;SDS011;25203;50.754;6.978;2023-03-21T07:28:52;17.92;;;8.27;;
39524;SDS011;25203;50.754;6.978;2023-03-21T07:30:53;15.77;;;8.63;;
39524;SDS011;25203;50.754;6.978;2023-03-21T07:32:55;15.07;;;8.30;;
39524;SDS011;25203;50.754;6.978;2023-03-21T07:34:56;17.13;;;9.52;;
39524;SDS011;25203;50.754;6.978;2023-03-21T07:36:56;20.23;;;9.43;;
39524;SDS011;25203;50.754;6.978;2023-03-21T07:38:57;20.63;;;9.73;;
39524;SDS011;25203;50.754;6.978;2023-03-21T07:40:58;20.58;;;9.93;;
39524;SDS011;25203;50.754;6.978;2023-03-21T07:42:59;23.08;;;12.20;;
39524;SDS011;25203;50.754;6.978;2023-03-21T07:45:00;24.33;;;10.90;;
39524;SDS011;25203;50.754;6.978;2023-03-21T07:47:00;25.75;;;11.35;;
39524;SDS011;25203;50.754;6.978;2023-03-21T07:49:01;23.50;;;11.18;;
39524;SDS011;25203;50.754;6.978;2023-03-21T07:51:02;24.90;;;10.68;;
39524;SDS011;25203;50.754;6.978;2023-03-21T07:53:02;21.17;;;10.40;;
39524;SDS011;25203;50.754;6.978;2023-03-21T07:55:03;26.25;;;12.70;;
39524;SDS011;25203;50.754;6.978;2023-03-21T07:57:04;22.25;;;11.70;;
39524;SDS011;25203;50.754;6.978;2023-03-21T07:59:06;23.00;;;10.98;;
39524;SDS011;25203;50.754;6.978;2023-03-21T08:01:07;21.13;;;11.35;;
39524;SDS011;25203;50.754;6.978;2023-03-21T08:03:08;24.85;;;11.75;;
39524;SDS011;25203;50.754;6.978;2023-03-21T08:05:09;24.42;;;12.02;;
39524;SDS011;25203;50.754;6.978;2023-03-21T08:07:10;29.08;;;12.18;;
39524;SDS011;25203;50.754;6.978;2023-03-21T08:09:11;22.60;;;12.50;;
39524;SDS011;25203;50.754;6.978;2023-03-21T08:11:12;26.15;;;12.50;;
39524;SDS011;25203;50.754;6.978;2023-03-21T08:13:13;28.52;;;13.85;;
39524;SDS011;25203;50.754;6.978;2023-03-21T08:15:14;26.55;;;14.25;;
39524;SDS011;25203;50.754;6.978;2023-03-21T08:17:14;23.42;;;13.48;;
39524;SDS011;25203;50.754;6.978;2023-03-21T08:19:15;25.42;;;13.27;;
39524;SDS011;25203;50.754;6.978;2023-03-21T08:21:17;32.65;;;14.07;;
39524;SDS011;25203;50.754;6.978;2023-03-21T08:23:18;30.13;;;12.68;;
39524;SDS011;25203;50.754;6.978;2023-03-21T08:25:21;32.45;;;15.18;;
39524;SDS011;25203;50.754;6.978;2023-03-21T08:27:21;32.10;;;14.80;;
39524;SDS011;25203;50.754;6.978;2023-03-21T08:29:22;31.33;;;15.30;;
39524;SDS011;25203;50.754;6.978;2023-03-21T08:31:24;27.83;;;14.63;;
39524;SDS011;25203;50.754;6.978;2023-03-21T08:33:24;28.15;;;15.30;;
39524;SDS011;25203;50.754;6.978;2023-03-21T08:35:25;32.53;;;15.88;;
39524;SDS011;25203;50.754;6.978;2023-03-21T08:37:26;29.13;;;15.60;;
39524;SDS011;25203;50.754;6.978;2023-03-21T08:39:27;33.42;;;15.75;;
39524;SDS011;25203;50.754;6.978;2023-03-21T08:41:28;25.40;;;14.57;;
39524;SDS011;25203;50.754;6.978;2023-03-21T08:43:29;30.38;;;14.32;;
39524;SDS011;25203;50.754;6.978;2023-03-21T08:45:29;29.42;;;15.25;;
39524;SDS011;25203;50.754;6.978;2023-03-21T08:47:30;30.52;;;15.15;;
39524;SDS011;25203;50.754;6.978;2023-03-21T08:49:31;37.22;;;16.42;;
39524;SDS011;25203;50.754;6.978;2023-03-21T08:51:32;26.80;;;16.00;;
39524;SDS011;25203;50.754;6.978;2023-03-21T08:53:33;28.13;;;14.68;;
39524;SDS011;25203;50.754;6.978;2023-03-21T08:55:34;33.65;;;16.88;;
39524;SDS011;25203;50.754;6.978;2023-03-21T08:57:35;27.52;;;15.38;;
39524;SDS011;25203;50.754;6.978;2023-03-21T08:59:36;31.08;;;15.52;;
39524;SDS011;25203;50.754;6.978;2023-03-21T09:01:37;34.92;;;15.32;;
39524;SDS011;25203;50.754;6.978;2023-03-21T09:03:37;30.40;;;14.90;;
39524;SDS011;25203;50.754;6.978;2023-03-21T09:05:38;30.65;;;16.48;;
39524;SDS011;25203;50.754;6.978;2023-03-21T09:07:40;33.00;;;16.38;;
39524;SDS011;25203;50.754;6.978;2023-03-21T09:09:40;32.63;;;14.77;;
39524;SDS011;25203;50.754;6.978;2023-03-21T09:11:41;25.88;;;14.82;;
39524;SDS011;25203;50.754;6.978;2023-03-21T09:13:42;28.55;;;14.27;;
39524;SDS011;25203;50.754;6.978;2023-03-21T09:15:42;33.47;;;16.17;;
39524;SDS011;25203;50.754;6.978;2023-03-21T09:17:44;29.42;;;15.68;;
39524;SDS011;25203;50.754;6.978;2023-03-21T09:19:49;28.52;;;15.25;;
39524;SDS011;25203;50.754;6.978;2023-03-21T09:21:49;32.30;;;14.55;;
39524;SDS011;25203;50.754;6.978;2023-03-21T09:23:52;28.55;;;14.23;;
39524;SDS011;25203;50.754;6.978;2023-03-21T09:25:55;27.33;;;14.52;;
39524;SDS011;25203;50.754;6.978;2023-03-21T09:27:55;29.85;;;13.95;;
39524;SDS011;25203;50.754;6.978;2023-03-21T09:29:57;19.42;;;12.85;;
39524;SDS011;25203;50.754;6.978;2023-03-21T09:31:59;22.60;;;13.00;;
39524;SDS011;25203;50.754;6.978;2023-03-21T09:34:00;28.00;;;13.40;;
39524;SDS011;25203;50.754;6.978;2023-03-21T09:36:01;24.30;;;12.70;;
39524;SDS011;25203;50.754;6.978;2023-03-21T09:38:05;26.27;;;11.85;;
39524;SDS011;25203;50.754;6.978;2023-03-21T09:40:13;23.25;;;12.02;;
39524;SDS011;25203;50.754;6.978;2023-03-21T09:42:44;20.70;;;11.98;;
39524;SDS011;25203;50.754;6.978;2023-03-21T09:49:37;25.73;;;12.48;;
39524;SDS011;25203;50.754;6.978;2023-03-21T09:51:43;29.05;;;12.95;;
39524;SDS011;25203;50.754;6.978;2023-03-21T09:53:48;22.65;;;12.27;;
39524;SDS011;25203;50.754;6.978;2023-03-21T09:55:50;33.90;;;12.40;;
39524;SDS011;25203;50.754;6.978;2023-03-21T09:57:56;29.77;;;12.88;;
39524;SDS011;25203;50.754;6.978;2023-03-21T10:00:05;23.73;;;12.95;;
39524;SDS011;25203;50.754;6.978;2023-03-21T10:04:45;27.27;;;13.45;;
39524;SDS011;25203;50.754;6.978;2023-03-21T10:06:46;25.90;;;13.13;;
39524;SDS011;25203;50.754;6.978;2023-03-21T10:09:09;23.30;;;12.48;;
39524;SDS011;25203;50.754;6.978;2023-03-21T10:11:16;29.17;;;14.27;;
39524;SDS011;25203;50.754;6.978;2023-03-21T10:13:38;28.55;;;14.63;;
39524;SDS011;25203;50.754;6.978;2023-03-21T10:15:43;30.65;;;15.60;;
39524;SDS011;25203;50.754;6.978;2023-03-21T10:17:46;35.28;;;16.83;;
39524;SDS011;25203;50.754;6.978;2023-03-21T10:22:14;30.67;;;15.77;;
39524;SDS011;25203;50.754;6.978;2023-03-21T10:24:18;33.50;;;16.30;;
39524;SDS011;25203;50.754;6.978;2023-03-21T10:26:24;30.88;;;15.93;;
39524;SDS011;25203;50.754;6.978;2023-03-21T10:28:31;33.03;;;16.60;;
39524;SDS011;25203;50.754;6.978;2023-03-21T10:30:39;30.40;;;17.33;;
39524;SDS011;25203;50.754;6.978;2023-03-21T10:32:45;33.47;;;18.02;;
39524;SDS011;25203;50.754;6.978;2023-03-21T10:34:50;43.58;;;19.38;;
39524;SDS011;25203;50.754;6.978;2023-03-21T10:36:54;38.17;;;19.95;;
39524;SDS011;25203;50.754;6.978;2023-03-21T10:38:56;38.30;;;19.33;;
39524;SDS011;25203;50.754;6.978;2023-03-21T10:41:02;36.30;;;20.40;;
39524;SDS011;25203;50.754;6.978;2023-03-21T10:45:25;37.25;;;19.92;;
39524;SDS011;25203;50.754;6.978;2023-03-21T10:47:30;32.90;;;19.33;;
39524;SDS011;25203;50.754;6.978;2023-03-21T10:49:32;38.00;;;20.83;;
39524;SDS011;25203;50.754;6.978;2023-03-21T10:51:35;34.10;;;20.52;;
39524;SDS011;25203;50.754;6.978;2023-03-21T10:53:38;31.85;;;18.98;;
39524;SDS011;25203;50.754;6.978;2023-03-21T10:55:45;34.10;;;18.42;;
39524;SDS011;25203;50.754;6.978;2023-03-21T10:57:58;29.58;;;17.92;;
39524;SDS011;25203;50.754;6.978;2023-03-21T11:00:10;34.65;;;18.77;;
39524;SDS011;25203;50.754;6.978;2023-03-21T11:02:20;26.77;;;16.52;;
39524;SDS011;25203;50.754;6.978;2023-03-21T11:04:26;25.15;;;16.77;;
39524;SDS011;25203;50.754;6.978;2023-03-21T11:06:29;26.20;;;15.15;;
39524;SDS011;25203;50.754;6.978;2023-03-21T11:08:36;29.98;;;14.50;;
39524;SDS011;25203;50.754;6.978;2023-03-21T11:13:06;29.17;;;15.15;;
39524;SDS011;25203;50.754;6.978;2023-03-21T11:17:27;25.80;;;15.23;;
39524;SDS011;25203;50.754;6.978;2023-03-21T11:19:31;22.45;;;15.05;;
39524;SDS011;25203;50.754;6.978;2023-03-21T11:21:35;26.52;;;14.80;;
39524;SDS011;25203;50.754;6.978;2023-03-21T11:23:41;24.15;;;14.73;;
39524;SDS011;25203;50.754;6.978;2023-03-21T11:25:46;28.38;;;15.90;;
39524;SDS011;25203;50.754;6.978;2023-03-21T11:27:50;22.95;;;14.68;;
39524;SDS011;25203;50.754;6.978;2023-03-21T11:29:55;19.05;;;13.95;;
39524;SDS011;25203;50.754;6.978;2023-03-21T11:31:59;29.50;;;15.93;;
39524;SDS011;25203;50.754;6.978;2023-03-21T11:34:07;24.23;;;15.65;;
39524;SDS011;25203;50.754;6.978;2023-03-21T11:38:23;23.40;;;16.45;;
39524;SDS011;25203;50.754;6.978;2023-03-21T11:40:51;26.02;;;14.55;;
39524;SDS011;25203;50.754;6.978;2023-03-21T11:42:56;28.33;;;15.10;;
39524;SDS011;25203;50.754;6.978;2023-03-21T11:45:00;20.95;;;14.52;;
39524;SDS011;25203;50.754;6.978;2023-03-21T11:47:10;24.15;;;14.02;;
39524;SDS011;25203;50.754;6.978;2023-03-21T11:49:11;29.35;;;14.82;;
39524;SDS011;25203;50.754;6.978;2023-03-21T11:53:36;25.55;;;14.30;;
39524;SDS011;25203;50.754;6.978;2023-03-21T11:58:04;26.52;;;15.15;;
39524;SDS011;25203;50.754;6.978;2023-03-21T12:00:19;24.42;;;15.85;;
39524;SDS011;25203;50.754;6.978;2023-03-21T12:05:14;27.45;;;15.88;;
39524;SDS011;25203;50.754;6.978;2023-03-21T12:16:41;31.95;;;16.80;;
39524;SDS011;25203;50.754;6.978;2023-03-21T12:25:44;19.70;;;14.60;;
39524;SDS011;25203;50.754;6.978;2023-03-21T12:39:31;27.05;;;15.15;;
39524;SDS011;25203;50.754;6.978;2023-03-21T12:41:52;20.85;;;12.50;;
39524;SDS011;25203;50.754;6.978;2023-03-21T12:44:10;20.27;;;12.50;;
39524;SDS011;25203;50.754;6.978;2023-03-21T12:51:09;26.58;;;12.30;;
39524;SDS011;25203;50.754;6.978;2023-03-21T12:55:32;17.40;;;11.77;;
39524;SDS011;25203;50.754;6.978;2023-03-21T12:57:35;17.83;;;11.57;;
39524;SDS011;25203;50.754;6.978;2023-03-21T13:00:15;15.38;;;10.73;;
39524;SDS011;25203;50.754;6.978;2023-03-21T13:06:41;20.92;;;11.10;;
39524;SDS011;25203;50.754;6.978;2023-03-21T13:08:48;23.67;;;10.98;;
39524;SDS011;25203;50.754;6.978;2023-03-21T13:10:56;22.52;;;11.43;;
39524;SDS011;25203;50.754;6.978;2023-03-21T13:13:15;18.77;;;10.93;;
39524;SDS011;25203;50.754;6.978;2023-03-21T13:20:25;13.85;;;9.43;;
39524;SDS011;25203;50.754;6.978;2023-03-21T13:22:49;17.08;;;9.30;;
39524;SDS011;25203;50.754;6.978;2023-03-21T13:24:54;13.00;;;9.82;;
39524;SDS011;25203;50.754;6.978;2023-03-21T13:31:42;15.60;;;10.52;;
39524;SDS011;25203;50.754;6.978;2023-03-21T13:33:47;20.15;;;10.95;;
39524;SDS011;25203;50.754;6.978;2023-03-21T13:35:59;14.88;;;10.50;;
39524;SDS011;25203;50.754;6.978;2023-03-21T13:38:16;13.30;;;8.70;;
39524;SDS011;25203;50.754;6.978;2023-03-21T13:40:33;14.40;;;8.30;;
39524;SDS011;25203;50.754;6.978;2023-03-21T13:42:41;16.38;;;8.35;;
39524;SDS011;25203;50.754;6.978;2023-03-21T13:44:47;15.18;;;6.95;;
39524;SDS011;25203;50.754;6.978;2023-03-21T13:46:58;11.03;;;6.77;;
39524;SDS011;25203;50.754;6.978;2023-03-21T13:51:07;12.77;;;7.10;;
39524;SDS011;25203;50.754;6.978;2023-03-21T13:55:15;12.10;;;8.00;;
39524;SDS011;25203;50.754;6.978;2023-03-21T13:57:35;10.35;;;7.88;;
39524;SDS011;25203;50.754;6.978;2023-03-21T13:59:40;13.10;;;7.28;;
39524;SDS011;25203;50.754;6.978;2023-03-21T14:01:58;15.63;;;8.13;;
39524;SDS011;25203;50.754;6.978;2023-03-21T14:06:08;10.35;;;6.13;;